sensor_id;sensor_type;location;lat;lon;timestamp;temperature;humidity
3842;DHT22;1936;47.074;15.336;2024-02-14T00:00:51;-0.60;99.90
3842;DHT22;1936;47.074;15.336;2024-02-14T00:02:55;-0.50;99.90
3842;DHT22;1936;47.074;15.336;2024-02-14T00:04:58;-0.50;99.90
3842;DHT22;1936;47.074;15.336;2024-02-14T00:07:02;-0.60;99.90
3842;DHT22;1936;47.074;15.336;2024-02-14T00:09:05;-0.60;99.90
3842;DHT22;1936;47.074;15.336;2024-02-14T00:11:09;-0.70;99.90
3842;DHT22;1936;47.074;15.336;2024-02-14T00:13:14;-0.70;99.90
3842;DHT22;1936;47.074;15.336;2024-02-14T00:15:20;-0.70;99.90
3842;DHT22;1936;47.074;15.336;2024-02-14T00:17:23;-0.70;99.90
3842;DHT22;1936;47.074;15.336;2024-02-14T00:19:27;-0.70;99.90
3842;DHT22;1936;47.074;15.336;2024-02-14T00:21:31;-0.70;99.90
3842;DHT22;1936;47.074;15.336;2024-02-14T00:23:36;-0.80;99.90
3842;DHT22;1936;47.074;15.336;2024-02-14T00:25:39;-0.80;99.90
3842;DHT22;1936;47.074;15.336;2024-02-14T00:27:42;-0.80;99.90
3842;DHT22;1936;47.074;15.336;2024-02-14T00:29:47;-1.00;99.90
3842;DHT22;1936;47.074;15.336;2024-02-14T00:31:50;-1.00;99.90
3842;DHT22;1936;47.074;15.336;2024-02-14T00:33:53;-0.90;99.90
3842;DHT22;1936;47.074;15.336;2024-02-14T00:35:57;-1.00;99.90
3842;DHT22;1936;47.074;15.336;2024-02-14T00:38:01;-1.10;99.90
3842;DHT22;1936;47.074;15.336;2024-02-14T00:40:05;-1.10;99.90
3842;DHT22;1936;47.074;15.336;2024-02-14T00:42:09;-1.10;99.90
3842;DHT22;1936;47.074;15.336;2024-02-14T00:44:13;-1.10;99.90
3842;DHT22;1936;47.074;15.336;2024-02-14T00:46:20;-1.10;99.90
3842;DHT22;1936;47.074;15.336;2024-02-14T00:48:23;-1.00;99.90
3842;DHT22;1936;47.074;15.336;2024-02-14T00:50:27;-1.00;99.90
3842;DHT22;1936;47.074;15.336;2024-02-14T00:52:30;-1.00;99.90
3842;DHT22;1936;47.074;15.336;2024-02-14T00:54:33;-1.00;99.90
3842;DHT22;1936;47.074;15.336;2024-02-14T00:56:36;-1.10;99.90
3842;DHT22;1936;47.074;15.336;2024-02-14T00:58:40;-1.20;99.90
3842;DHT22;1936;47.074;15.336;2024-02-14T01:00:43;-1.20;99.90
3842;DHT22;1936;47.074;15.336;2024-02-14T01:02:47;-1.30;99.90
3842;DHT22;1936;47.074;15.336;2024-02-14T01:04:50;-1.30;99.90
3842;DHT22;1936;47.074;15.336;2024-02-14T01:06:53;-1.30;99.90
3842;DHT22;1936;47.074;15.336;2024-02-14T01:08:57;-1.30;99.90
3842;DHT22;1936;47.074;15.336;2024-02-14T01:11:00;-1.30;99.90
3842;DHT22;1936;47.074;15.336;2024-02-14T01:13:03;-1.30;99.90
3842;DHT22;1936;47.074;15.336;2024-02-14T01:15:07;-1.30;99.90
3842;DHT22;1936;47.074;15.336;2024-02-14T01:17:11;-1.40;99.90
3842;DHT22;1936;47.074;15.336;2024-02-14T01:19:16;-1.40;99.90
3842;DHT22;1936;47.074;15.336;2024-02-14T01:21:21;-1.40;99.90
3842;DHT22;1936;47.074;15.336;2024-02-14T01:23:24;-1.30;99.90
3842;DHT22;1936;47.074;15.336;2024-02-14T01:25:28;-1.50;99.90
3842;DHT22;1936;47.074;15.336;2024-02-14T01:27:31;-1.50;99.90
3842;DHT22;1936;47.074;15.336;2024-02-14T01:29:34;-1.50;99.90
3842;DHT22;1936;47.074;15.336;2024-02-14T01:31:38;-1.40;99.90
3842;DHT22;1936;47.074;15.336;2024-02-14T01:33:41;-1.40;99.90
3842;DHT22;1936;47.074;15.336;2024-02-14T01:35:47;-1.50;99.90
3842;DHT22;1936;47.074;15.336;2024-02-14T01:37:50;-1.50;99.90
3842;DHT22;1936;47.074;15.336;2024-02-14T01:39:54;-1.40;99.90
3842;DHT22;1936;47.074;15.336;2024-02-14T01:41:57;-1.40;99.90
3842;DHT22;1936;47.074;15.336;2024-02-14T01:44:01;-1.40;99.90
3842;DHT22;1936;47.074;15.336;2024-02-14T01:46:05;-1.40;99.90
3842;DHT22;1936;47.074;15.336;2024-02-14T01:48:09;-1.50;99.90
3842;DHT22;1936;47.074;15.336;2024-02-14T01:50:13;-1.60;99.90
3842;DHT22;1936;47.074;15.336;2024-02-14T01:52:18;-1.70;99.90
3842;DHT22;1936;47.074;15.336;2024-02-14T01:54:21;-1.70;99.90
3842;DHT22;1936;47.074;15.336;2024-02-14T01:56:24;-1.60;99.90
3842;DHT22;1936;47.074;15.336;2024-02-14T01:58:30;-1.60;99.90
3842;DHT22;1936;47.074;15.336;2024-02-14T02:00:34;-1.50;99.90
3842;DHT22;1936;47.074;15.336;2024-02-14T02:02:38;-1.50;99.90
3842;DHT22;1936;47.074;15.336;2024-02-14T02:04:42;-1.40;99.90
3842;DHT22;1936;47.074;15.336;2024-02-14T02:06:45;-1.30;99.90
3842;DHT22;1936;47.074;15.336;2024-02-14T02:08:49;-1.40;99.90
3842;DHT22;1936;47.074;15.336;2024-02-14T02:10:53;-1.50;99.90
3842;DHT22;1936;47.074;15.336;2024-02-14T02:12:58;-1.50;99.90
3842;DHT22;1936;47.074;15.336;2024-02-14T02:15:03;-1.60;99.90
3842;DHT22;1936;47.074;15.336;2024-02-14T02:17:07;-1.70;99.90
3842;DHT22;1936;47.074;15.336;2024-02-14T02:19:13;-1.70;99.90
3842;DHT22;1936;47.074;15.336;2024-02-14T02:21:18;-1.70;99.90
3842;DHT22;1936;47.074;15.336;2024-02-14T02:23:27;-1.60;99.90
3842;DHT22;1936;47.074;15.336;2024-02-14T02:25:30;-1.70;99.90
3842;DHT22;1936;47.074;15.336;2024-02-14T02:27:33;-1.50;99.90
3842;DHT22;1936;47.074;15.336;2024-02-14T02:29:40;-1.40;99.90
3842;DHT22;1936;47.074;15.336;2024-02-14T02:31:43;-1.30;99.90
3842;DHT22;1936;47.074;15.336;2024-02-14T02:33:46;-1.30;99.90
3842;DHT22;1936;47.074;15.336;2024-02-14T02:35:50;-1.30;99.90
3842;DHT22;1936;47.074;15.336;2024-02-14T02:37:54;-1.40;99.90
3842;DHT22;1936;47.074;15.336;2024-02-14T02:39:59;-1.50;99.90
3842;DHT22;1936;47.074;15.336;2024-02-14T02:42:01;-1.40;99.90
3842;DHT22;1936;47.074;15.336;2024-02-14T02:44:05;-1.40;99.90
3842;DHT22;1936;47.074;15.336;2024-02-14T02:46:09;-1.40;99.90
3842;DHT22;1936;47.074;15.336;2024-02-14T02:48:12;-1.40;99.90
3842;DHT22;1936;47.074;15.336;2024-02-14T02:50:16;-1.50;99.90
3842;DHT22;1936;47.074;15.336;2024-02-14T02:52:19;-1.60;99.90
3842;DHT22;1936;47.074;15.336;2024-02-14T02:54:23;-1.70;99.90
3842;DHT22;1936;47.074;15.336;2024-02-14T02:56:27;-1.60;99.90
3842;DHT22;1936;47.074;15.336;2024-02-14T02:58:31;-1.70;99.90
3842;DHT22;1936;47.074;15.336;2024-02-14T03:00:35;-1.80;99.90
3842;DHT22;1936;47.074;15.336;2024-02-14T03:02:40;-1.80;99.90
3842;DHT22;1936;47.074;15.336;2024-02-14T03:04:47;-1.90;99.90
3842;DHT22;1936;47.074;15.336;2024-02-14T03:06:54;-1.90;99.90
3842;DHT22;1936;47.074;15.336;2024-02-14T03:09:09;-1.80;99.90
3842;DHT22;1936;47.074;15.336;2024-02-14T03:11:16;-1.90;99.90
3842;DHT22;1936;47.074;15.336;2024-02-14T03:13:21;-2.00;99.90
3842;DHT22;1936;47.074;15.336;2024-02-14T03:15:27;-2.00;99.90
3842;DHT22;1936;47.074;15.336;2024-02-14T03:17:30;-2.00;99.90
3842;DHT22;1936;47.074;15.336;2024-02-14T03:19:34;-1.90;99.90
3842;DHT22;1936;47.074;15.336;2024-02-14T03:21:47;-1.90;99.90
3842;DHT22;1936;47.074;15.336;2024-02-14T03:24:07;-2.00;99.90
3842;DHT22;1936;47.074;15.336;2024-02-14T03:26:18;-2.00;99.90
3842;DHT22;1936;47.074;15.336;2024-02-14T03:28:36;-1.90;99.90
3842;DHT22;1936;47.074;15.336;2024-02-14T03:31:14;-2.00;99.90
3842;DHT22;1936;47.074;15.336;2024-02-14T03:34:38;-1.90;99.90
3842;DHT22;1936;47.074;15.336;2024-02-14T03:37:29;-2.00;99.90
3842;DHT22;1936;47.074;15.336;2024-02-14T03:39:33;-2.00;99.90
3842;DHT22;1936;47.074;15.336;2024-02-14T03:41:37;-2.10;99.90
3842;DHT22;1936;47.074;15.336;2024-02-14T03:43:42;-2.20;99.90
3842;DHT22;1936;47.074;15.336;2024-02-14T03:45:46;-2.10;99.90
3842;DHT22;1936;47.074;15.336;2024-02-14T03:47:49;-2.20;99.90
3842;DHT22;1936;47.074;15.336;2024-02-14T03:49:53;-2.10;99.90
3842;DHT22;1936;47.074;15.336;2024-02-14T03:51:56;-2.10;99.90
3842;DHT22;1936;47.074;15.336;2024-02-14T03:54:00;-2.10;99.90
3842;DHT22;1936;47.074;15.336;2024-02-14T03:56:04;-2.10;99.90
3842;DHT22;1936;47.074;15.336;2024-02-14T03:58:09;-2.10;99.90
3842;DHT22;1936;47.074;15.336;2024-02-14T04:00:15;-2.20;99.90
3842;DHT22;1936;47.074;15.336;2024-02-14T04:02:19;-2.20;99.90
3842;DHT22;1936;47.074;15.336;2024-02-14T04:04:22;-2.20;99.90
3842;DHT22;1936;47.074;15.336;2024-02-14T04:06:25;-2.10;99.90
3842;DHT22;1936;47.074;15.336;2024-02-14T04:08:29;-2.00;99.90
3842;DHT22;1936;47.074;15.336;2024-02-14T04:10:33;-2.10;99.90
3842;DHT22;1936;47.074;15.336;2024-02-14T04:12:36;-2.10;99.90
3842;DHT22;1936;47.074;15.336;2024-02-14T04:14:42;-2.20;99.90
3842;DHT22;1936;47.074;15.336;2024-02-14T04:16:47;-2.10;99.90
3842;DHT22;1936;47.074;15.336;2024-02-14T04:18:50;-2.10;99.90
3842;DHT22;1936;47.074;15.336;2024-02-14T04:20:55;-2.10;99.90
3842;DHT22;1936;47.074;15.336;2024-02-14T04:22:59;-2.00;99.90
3842;DHT22;1936;47.074;15.336;2024-02-14T04:25:02;-2.00;99.90
3842;DHT22;1936;47.074;15.336;2024-02-14T04:27:05;-2.10;99.90
3842;DHT22;1936;47.074;15.336;2024-02-14T04:29:09;-2.10;99.90
3842;DHT22;1936;47.074;15.336;2024-02-14T04:31:12;-2.20;99.90
3842;DHT22;1936;47.074;15.336;2024-02-14T04:33:17;-2.20;99.90
3842;DHT22;1936;47.074;15.336;2024-02-14T04:35:20;-2.20;99.90
3842;DHT22;1936;47.074;15.336;2024-02-14T04:37:23;-2.20;99.90
3842;DHT22;1936;47.074;15.336;2024-02-14T04:39:27;-2.10;99.90
3842;DHT22;1936;47.074;15.336;2024-02-14T04:41:30;-2.20;99.90
3842;DHT22;1936;47.074;15.336;2024-02-14T04:43:33;-2.10;99.90
3842;DHT22;1936;47.074;15.336;2024-02-14T04:45:36;-2.10;99.90
3842;DHT22;1936;47.074;15.336;2024-02-14T04:47:40;-2.00;99.90
3842;DHT22;1936;47.074;15.336;2024-02-14T04:49:45;-2.00;99.90
3842;DHT22;1936;47.074;15.336;2024-02-14T04:51:49;-2.10;99.90
3842;DHT22;1936;47.074;15.336;2024-02-14T04:53:52;-2.20;99.90
3842;DHT22;1936;47.074;15.336;2024-02-14T04:55:55;-2.30;99.90
3842;DHT22;1936;47.074;15.336;2024-02-14T04:57:59;-2.30;99.90
3842;DHT22;1936;47.074;15.336;2024-02-14T05:00:01;-2.30;99.90
3842;DHT22;1936;47.074;15.336;2024-02-14T05:02:06;-2.30;99.90
3842;DHT22;1936;47.074;15.336;2024-02-14T05:04:10;-2.30;99.90
3842;DHT22;1936;47.074;15.336;2024-02-14T05:06:16;-2.30;99.90
3842;DHT22;1936;47.074;15.336;2024-02-14T05:08:20;-2.20;99.90
3842;DHT22;1936;47.074;15.336;2024-02-14T05:10:23;-2.30;99.90
3842;DHT22;1936;47.074;15.336;2024-02-14T05:12:26;-2.30;99.90
3842;DHT22;1936;47.074;15.336;2024-02-14T05:14:30;-2.30;99.90
3842;DHT22;1936;47.074;15.336;2024-02-14T05:16:33;-2.30;99.90
3842;DHT22;1936;47.074;15.336;2024-02-14T05:18:37;-2.40;99.90
3842;DHT22;1936;47.074;15.336;2024-02-14T05:20:42;-2.30;99.90
3842;DHT22;1936;47.074;15.336;2024-02-14T05:22:50;-2.40;99.90
3842;DHT22;1936;47.074;15.336;2024-02-14T05:24:53;-2.30;99.90
3842;DHT22;1936;47.074;15.336;2024-02-14T05:26:56;-2.30;99.90
3842;DHT22;1936;47.074;15.336;2024-02-14T05:29:00;-2.30;99.90
3842;DHT22;1936;47.074;15.336;2024-02-14T05:31:05;-2.30;99.90
3842;DHT22;1936;47.074;15.336;2024-02-14T05:33:09;-2.30;99.90
3842;DHT22;1936;47.074;15.336;2024-02-14T05:35:13;-2.40;99.90
3842;DHT22;1936;47.074;15.336;2024-02-14T05:37:17;-2.40;99.90
3842;DHT22;1936;47.074;15.336;2024-02-14T05:39:22;-2.50;99.90
3842;DHT22;1936;47.074;15.336;2024-02-14T05:41:25;-2.40;99.90
3842;DHT22;1936;47.074;15.336;2024-02-14T05:43:29;-2.30;99.90
3842;DHT22;1936;47.074;15.336;2024-02-14T05:45:32;-2.40;99.90
3842;DHT22;1936;47.074;15.336;2024-02-14T05:47:34;-2.40;99.90
3842;DHT22;1936;47.074;15.336;2024-02-14T05:49:41;-2.40;99.90
3842;DHT22;1936;47.074;15.336;2024-02-14T05:51:45;-2.40;99.90
3842;DHT22;1936;47.074;15.336;2024-02-14T05:53:48;-2.50;99.90
3842;DHT22;1936;47.074;15.336;2024-02-14T05:55:52;-2.40;99.90
3842;DHT22;1936;47.074;15.336;2024-02-14T05:57:56;-2.40;99.90
3842;DHT22;1936;47.074;15.336;2024-02-14T06:00:00;-2.40;99.90
3842;DHT22;1936;47.074;15.336;2024-02-14T06:02:05;-2.50;99.90
3842;DHT22;1936;47.074;15.336;2024-02-14T06:04:10;-2.40;99.90
3842;DHT22;1936;47.074;15.336;2024-02-14T06:06:13;-2.40;99.90
3842;DHT22;1936;47.074;15.336;2024-02-14T06:08:18;-2.40;99.90
3842;DHT22;1936;47.074;15.336;2024-02-14T06:10:22;-2.40;99.90
3842;DHT22;1936;47.074;15.336;2024-02-14T06:12:29;-2.40;99.90
3842;DHT22;1936;47.074;15.336;2024-02-14T06:14:32;-2.40;99.90
3842;DHT22;1936;47.074;15.336;2024-02-14T06:16:37;-2.30;99.90
3842;DHT22;1936;47.074;15.336;2024-02-14T06:18:41;-2.30;99.90
3842;DHT22;1936;47.074;15.336;2024-02-14T06:20:45;-2.30;99.90
3842;DHT22;1936;47.074;15.336;2024-02-14T06:22:49;-2.20;99.90
3842;DHT22;1936;47.074;15.336;2024-02-14T06:25:06;-2.20;99.90
3842;DHT22;1936;47.074;15.336;2024-02-14T06:27:11;-2.10;99.90
3842;DHT22;1936;47.074;15.336;2024-02-14T06:29:17;-2.00;99.90
3842;DHT22;1936;47.074;15.336;2024-02-14T06:31:21;-1.90;99.90
3842;DHT22;1936;47.074;15.336;2024-02-14T06:33:25;-2.00;99.90
3842;DHT22;1936;47.074;15.336;2024-02-14T06:35:29;-1.90;99.90
3842;DHT22;1936;47.074;15.336;2024-02-14T06:37:33;-1.90;99.90
3842;DHT22;1936;47.074;15.336;2024-02-14T06:39:50;-1.90;99.90
3842;DHT22;1936;47.074;15.336;2024-02-14T06:41:53;-1.80;99.90
3842;DHT22;1936;47.074;15.336;2024-02-14T06:43:57;-1.80;99.90
3842;DHT22;1936;47.074;15.336;2024-02-14T06:46:02;-1.70;99.90
3842;DHT22;1936;47.074;15.336;2024-02-14T06:48:07;-1.50;99.90
3842;DHT22;1936;47.074;15.336;2024-02-14T06:50:11;-1.30;99.90
3842;DHT22;1936;47.074;15.336;2024-02-14T06:52:14;-1.20;99.90
3842;DHT22;1936;47.074;15.336;2024-02-14T06:54:18;-1.00;99.90
3842;DHT22;1936;47.074;15.336;2024-02-14T06:56:22;-0.80;99.90
3842;DHT22;1936;47.074;15.336;2024-02-14T06:58:25;-0.50;99.90
3842;DHT22;1936;47.074;15.336;2024-02-14T07:00:28;-0.50;99.90
3842;DHT22;1936;47.074;15.336;2024-02-14T07:02:33;-0.50;99.90
3842;DHT22;1936;47.074;15.336;2024-02-14T07:04:36;-0.60;99.90
3842;DHT22;1936;47.074;15.336;2024-02-14T07:06:40;-0.40;99.90
3842;DHT22;1936;47.074;15.336;2024-02-14T07:08:44;-0.20;99.90
3842;DHT22;1936;47.074;15.336;2024-02-14T07:10:47;0.00;99.90
3842;DHT22;1936;47.074;15.336;2024-02-14T07:12:51;0.10;99.90
3842;DHT22;1936;47.074;15.336;2024-02-14T07:14:55;0.30;99.90
3842;DHT22;1936;47.074;15.336;2024-02-14T07:16:59;0.50;99.90
3842;DHT22;1936;47.074;15.336;2024-02-14T07:19:03;0.70;99.90
3842;DHT22;1936;47.074;15.336;2024-02-14T07:21:07;0.80;99.90
3842;DHT22;1936;47.074;15.336;2024-02-14T07:23:11;0.80;99.90
3842;DHT22;1936;47.074;15.336;2024-02-14T07:25:13;0.80;99.90
3842;DHT22;1936;47.074;15.336;2024-02-14T07:27:16;0.90;99.90
3842;DHT22;1936;47.074;15.336;2024-02-14T07:29:20;0.90;99.90
3842;DHT22;1936;47.074;15.336;2024-02-14T07:31:27;1.00;99.90
3842;DHT22;1936;47.074;15.336;2024-02-14T07:33:31;1.20;99.90
3842;DHT22;1936;47.074;15.336;2024-02-14T07:35:36;1.30;99.90
3842;DHT22;1936;47.074;15.336;2024-02-14T07:37:40;1.40;99.90
3842;DHT22;1936;47.074;15.336;2024-02-14T07:39:44;1.70;99.90
3842;DHT22;1936;47.074;15.336;2024-02-14T07:41:48;2.80;99.90
3842;DHT22;1936;47.074;15.336;2024-02-14T07:43:52;4.60;99.90
3842;DHT22;1936;47.074;15.336;2024-02-14T07:45:55;7.00;99.90
3842;DHT22;1936;47.074;15.336;2024-02-14T07:47:57;8.30;99.90
3842;DHT22;1936;47.074;15.336;2024-02-14T07:50:01;9.60;97.10
3842;DHT22;1936;47.074;15.336;2024-02-14T07:52:06;10.80;85.80
3842;DHT22;1936;47.074;15.336;2024-02-14T07:54:10;10.50;74.70
3842;DHT22;1936;47.074;15.336;2024-02-14T07:56:13;8.40;74.90
3842;DHT22;1936;47.074;15.336;2024-02-14T07:58:20;8.70;78.80
3842;DHT22;1936;47.074;15.336;2024-02-14T08:00:23;9.00;76.70
3842;DHT22;1936;47.074;15.336;2024-02-14T08:02:26;8.40;78.80
3842;DHT22;1936;47.074;15.336;2024-02-14T08:04:31;8.60;78.30
3842;DHT22;1936;47.074;15.336;2024-02-14T08:06:35;8.50;76.20
3842;DHT22;1936;47.074;15.336;2024-02-14T08:08:40;8.40;78.20
3842;DHT22;1936;47.074;15.336;2024-02-14T08:10:43;8.10;79.20
3842;DHT22;1936;47.074;15.336;2024-02-14T08:12:47;7.70;82.20
3842;DHT22;1936;47.074;15.336;2024-02-14T08:14:51;7.50;82.90
3842;DHT22;1936;47.074;15.336;2024-02-14T08:16:53;7.00;92.50
3842;DHT22;1936;47.074;15.336;2024-02-14T08:18:57;7.80;93.50
3842;DHT22;1936;47.074;15.336;2024-02-14T08:21:02;8.80;87.90
3842;DHT22;1936;47.074;15.336;2024-02-14T08:23:06;9.10;83.60
3842;DHT22;1936;47.074;15.336;2024-02-14T08:25:11;10.00;79.60
3842;DHT22;1936;47.074;15.336;2024-02-14T08:27:14;10.40;76.30
3842;DHT22;1936;47.074;15.336;2024-02-14T08:29:18;10.00;73.20
3842;DHT22;1936;47.074;15.336;2024-02-14T08:31:22;10.20;74.20
3842;DHT22;1936;47.074;15.336;2024-02-14T08:33:25;10.20;73.30
3842;DHT22;1936;47.074;15.336;2024-02-14T08:35:29;9.70;74.00
3842;DHT22;1936;47.074;15.336;2024-02-14T08:37:35;8.90;75.80
3842;DHT22;1936;47.074;15.336;2024-02-14T08:39:40;8.60;81.30
3842;DHT22;1936;47.074;15.336;2024-02-14T08:41:45;7.90;86.50
3842;DHT22;1936;47.074;15.336;2024-02-14T08:43:49;7.70;90.50
3842;DHT22;1936;47.074;15.336;2024-02-14T08:45:52;7.40;93.50
3842;DHT22;1936;47.074;15.336;2024-02-14T08:47:54;7.40;95.10
3842;DHT22;1936;47.074;15.336;2024-02-14T08:49:58;7.30;94.30
3842;DHT22;1936;47.074;15.336;2024-02-14T08:52:02;7.80;94.70
3842;DHT22;1936;47.074;15.336;2024-02-14T08:54:08;8.80;96.10
3842;DHT22;1936;47.074;15.336;2024-02-14T08:56:14;10.50;88.10
3842;DHT22;1936;47.074;15.336;2024-02-14T08:58:19;12.60;77.90
3842;DHT22;1936;47.074;15.336;2024-02-14T09:00:24;14.90;61.80
3842;DHT22;1936;47.074;15.336;2024-02-14T09:06:36;18.20;76.50
3842;DHT22;1936;47.074;15.336;2024-02-14T09:08:43;18.40;58.40
3842;DHT22;1936;47.074;15.336;2024-02-14T09:10:47;17.40;53.80
3842;DHT22;1936;47.074;15.336;2024-02-14T09:12:52;18.70;52.20
3842;DHT22;1936;47.074;15.336;2024-02-14T09:14:57;18.70;47.40
3842;DHT22;1936;47.074;15.336;2024-02-14T09:17:00;19.20;47.90
3842;DHT22;1936;47.074;15.336;2024-02-14T09:19:03;19.10;47.90
3842;DHT22;1936;47.074;15.336;2024-02-14T09:21:09;20.00;41.00
3842;DHT22;1936;47.074;15.336;2024-02-14T09:23:14;20.80;46.80
3842;DHT22;1936;47.074;15.336;2024-02-14T09:25:21;18.60;43.40
3842;DHT22;1936;47.074;15.336;2024-02-14T09:27:27;19.30;39.60
3842;DHT22;1936;47.074;15.336;2024-02-14T09:29:31;19.10;39.80
3842;DHT22;1936;47.074;15.336;2024-02-14T09:31:34;18.90;38.30
3842;DHT22;1936;47.074;15.336;2024-02-14T09:33:38;20.10;41.50
3842;DHT22;1936;47.074;15.336;2024-02-14T09:35:43;20.10;36.80
3842;DHT22;1936;47.074;15.336;2024-02-14T09:37:46;20.70;40.80
3842;DHT22;1936;47.074;15.336;2024-02-14T09:39:50;20.10;39.20
3842;DHT22;1936;47.074;15.336;2024-02-14T09:41:54;20.50;39.90
3842;DHT22;1936;47.074;15.336;2024-02-14T09:43:59;20.30;39.30
3842;DHT22;1936;47.074;15.336;2024-02-14T09:46:03;20.10;40.10
3842;DHT22;1936;47.074;15.336;2024-02-14T09:48:07;21.00;40.50
3842;DHT22;1936;47.074;15.336;2024-02-14T09:50:12;22.10;34.40
3842;DHT22;1936;47.074;15.336;2024-02-14T09:52:15;20.00;39.30
3842;DHT22;1936;47.074;15.336;2024-02-14T09:54:19;20.90;36.00
3842;DHT22;1936;47.074;15.336;2024-02-14T09:56:23;21.70;32.30
3842;DHT22;1936;47.074;15.336;2024-02-14T09:58:29;22.30;33.30
3842;DHT22;1936;47.074;15.336;2024-02-14T10:00:34;22.60;34.40
3842;DHT22;1936;47.074;15.336;2024-02-14T10:02:38;22.20;32.50
3842;DHT22;1936;47.074;15.336;2024-02-14T10:04:43;21.80;30.20
3842;DHT22;1936;47.074;15.336;2024-02-14T10:06:47;21.30;30.40
3842;DHT22;1936;47.074;15.336;2024-02-14T10:08:51;21.20;29.40
3842;DHT22;1936;47.074;15.336;2024-02-14T10:11:05;22.60;30.90
3842;DHT22;1936;47.074;15.336;2024-02-14T10:13:08;21.70;29.00
3842;DHT22;1936;47.074;15.336;2024-02-14T10:15:12;22.30;31.80
3842;DHT22;1936;47.074;15.336;2024-02-14T10:17:18;22.10;30.40
3842;DHT22;1936;47.074;15.336;2024-02-14T10:19:22;22.00;30.40
3842;DHT22;1936;47.074;15.336;2024-02-14T10:21:28;21.70;30.00
3842;DHT22;1936;47.074;15.336;2024-02-14T10:23:31;21.20;29.40
3842;DHT22;1936;47.074;15.336;2024-02-14T10:25:36;22.30;31.30
3842;DHT22;1936;47.074;15.336;2024-02-14T10:27:40;22.20;28.00
3842;DHT22;1936;47.074;15.336;2024-02-14T10:29:43;23.20;28.70
3842;DHT22;1936;47.074;15.336;2024-02-14T10:31:46;21.80;29.40
3842;DHT22;1936;47.074;15.336;2024-02-14T10:33:50;22.80;27.40
3842;DHT22;1936;47.074;15.336;2024-02-14T10:35:55;23.50;29.20
3842;DHT22;1936;47.074;15.336;2024-02-14T10:38:05;23.40;27.80
3842;DHT22;1936;47.074;15.336;2024-02-14T10:40:11;23.20;27.60
3842;DHT22;1936;47.074;15.336;2024-02-14T10:42:15;23.30;27.50
3842;DHT22;1936;47.074;15.336;2024-02-14T10:44:18;24.00;28.50
3842;DHT22;1936;47.074;15.336;2024-02-14T10:46:23;23.90;27.40
3842;DHT22;1936;47.074;15.336;2024-02-14T10:48:28;23.40;28.40
3842;DHT22;1936;47.074;15.336;2024-02-14T10:50:39;22.70;27.70
3842;DHT22;1936;47.074;15.336;2024-02-14T10:52:44;21.60;29.20
3842;DHT22;1936;47.074;15.336;2024-02-14T10:54:55;21.30;30.10
3842;DHT22;1936;47.074;15.336;2024-02-14T10:57:03;21.50;30.30
3842;DHT22;1936;47.074;15.336;2024-02-14T10:59:10;21.80;29.50
3842;DHT22;1936;47.074;15.336;2024-02-14T11:01:15;23.00;28.90
3842;DHT22;1936;47.074;15.336;2024-02-14T11:03:20;22.50;30.00
3842;DHT22;1936;47.074;15.336;2024-02-14T11:05:23;22.40;28.90
3842;DHT22;1936;47.074;15.336;2024-02-14T11:07:28;22.00;31.40
3842;DHT22;1936;47.074;15.336;2024-02-14T11:09:32;21.60;31.60
3842;DHT22;1936;47.074;15.336;2024-02-14T11:11:41;20.70;32.00
3842;DHT22;1936;47.074;15.336;2024-02-14T11:13:45;19.90;32.60
3842;DHT22;1936;47.074;15.336;2024-02-14T11:15:51;19.70;31.10
3842;DHT22;1936;47.074;15.336;2024-02-14T11:18:04;18.70;33.20
3842;DHT22;1936;47.074;15.336;2024-02-14T11:20:15;17.50;35.60
3842;DHT22;1936;47.074;15.336;2024-02-14T11:22:20;16.70;37.50
3842;DHT22;1936;47.074;15.336;2024-02-14T11:24:27;17.10;35.90
3842;DHT22;1936;47.074;15.336;2024-02-14T11:26:45;17.50;37.30
3842;DHT22;1936;47.074;15.336;2024-02-14T11:28:49;17.60;35.30
3842;DHT22;1936;47.074;15.336;2024-02-14T11:30:53;17.50;34.10
3842;DHT22;1936;47.074;15.336;2024-02-14T11:33:16;17.70;34.80
3842;DHT22;1936;47.074;15.336;2024-02-14T11:35:21;16.90;36.40
3842;DHT22;1936;47.074;15.336;2024-02-14T11:37:28;16.40;35.10
3842;DHT22;1936;47.074;15.336;2024-02-14T11:39:33;16.60;35.90
3842;DHT22;1936;47.074;15.336;2024-02-14T11:41:37;16.30;34.50
3842;DHT22;1936;47.074;15.336;2024-02-14T11:43:50;16.00;35.50
3842;DHT22;1936;47.074;15.336;2024-02-14T11:45:54;15.70;35.30
3842;DHT22;1936;47.074;15.336;2024-02-14T11:47:57;15.60;38.00
3842;DHT22;1936;47.074;15.336;2024-02-14T11:50:01;16.30;35.00
3842;DHT22;1936;47.074;15.336;2024-02-14T11:52:05;16.10;35.40
3842;DHT22;1936;47.074;15.336;2024-02-14T11:54:12;16.60;35.70
3842;DHT22;1936;47.074;15.336;2024-02-14T11:56:16;16.10;33.50
3842;DHT22;1936;47.074;15.336;2024-02-14T11:58:19;16.40;34.40
3842;DHT22;1936;47.074;15.336;2024-02-14T12:00:24;16.30;33.90
3842;DHT22;1936;47.074;15.336;2024-02-14T12:02:28;17.00;34.90
3842;DHT22;1936;47.074;15.336;2024-02-14T12:04:32;16.70;34.00
3842;DHT22;1936;47.074;15.336;2024-02-14T12:06:36;17.10;34.20
3842;DHT22;1936;47.074;15.336;2024-02-14T12:08:40;17.20;37.10
3842;DHT22;1936;47.074;15.336;2024-02-14T12:10:44;16.50;34.50
3842;DHT22;1936;47.074;15.336;2024-02-14T12:12:50;16.10;37.20
3842;DHT22;1936;47.074;15.336;2024-02-14T12:14:53;16.20;34.60
3842;DHT22;1936;47.074;15.336;2024-02-14T12:16:59;16.60;34.20
3842;DHT22;1936;47.074;15.336;2024-02-14T12:19:06;16.00;34.20
3842;DHT22;1936;47.074;15.336;2024-02-14T12:21:12;15.90;35.50
3842;DHT22;1936;47.074;15.336;2024-02-14T12:23:16;15.90;36.90
3842;DHT22;1936;47.074;15.336;2024-02-14T12:25:20;15.90;36.80
3842;DHT22;1936;47.074;15.336;2024-02-14T12:27:24;15.80;36.20
3842;DHT22;1936;47.074;15.336;2024-02-14T12:29:26;16.00;39.50
3842;DHT22;1936;47.074;15.336;2024-02-14T12:31:29;16.20;37.90
3842;DHT22;1936;47.074;15.336;2024-02-14T12:33:35;16.50;39.00
3842;DHT22;1936;47.074;15.336;2024-02-14T12:35:42;16.80;36.70
3842;DHT22;1936;47.074;15.336;2024-02-14T12:37:46;16.60;38.20
3842;DHT22;1936;47.074;15.336;2024-02-14T12:39:49;17.10;36.80
3842;DHT22;1936;47.074;15.336;2024-02-14T12:41:53;17.20;35.60
3842;DHT22;1936;47.074;15.336;2024-02-14T12:43:57;17.00;38.00
3842;DHT22;1936;47.074;15.336;2024-02-14T12:46:01;17.50;33.70
3842;DHT22;1936;47.074;15.336;2024-02-14T12:48:07;17.50;35.00
3842;DHT22;1936;47.074;15.336;2024-02-14T12:50:13;18.30;36.00
3842;DHT22;1936;47.074;15.336;2024-02-14T12:52:16;18.20;32.80
3842;DHT22;1936;47.074;15.336;2024-02-14T12:54:20;18.40;33.60
3842;DHT22;1936;47.074;15.336;2024-02-14T12:56:23;18.80;34.50
3842;DHT22;1936;47.074;15.336;2024-02-14T12:58:27;19.80;29.90
3842;DHT22;1936;47.074;15.336;2024-02-14T13:00:31;20.40;28.00
3842;DHT22;1936;47.074;15.336;2024-02-14T13:02:35;20.10;29.10
3842;DHT22;1936;47.074;15.336;2024-02-14T13:04:39;20.20;29.40
3842;DHT22;1936;47.074;15.336;2024-02-14T13:06:44;19.00;29.80
3842;DHT22;1936;47.074;15.336;2024-02-14T13:08:48;19.30;29.80
3842;DHT22;1936;47.074;15.336;2024-02-14T13:10:52;19.20;30.00
3842;DHT22;1936;47.074;15.336;2024-02-14T13:12:55;19.50;31.60
3842;DHT22;1936;47.074;15.336;2024-02-14T13:15:01;19.70;29.20
3842;DHT22;1936;47.074;15.336;2024-02-14T13:17:05;20.10;30.20
3842;DHT22;1936;47.074;15.336;2024-02-14T13:19:09;19.70;30.00
3842;DHT22;1936;47.074;15.336;2024-02-14T13:21:14;19.60;28.00
3842;DHT22;1936;47.074;15.336;2024-02-14T13:23:20;20.30;30.50
3842;DHT22;1936;47.074;15.336;2024-02-14T13:25:23;20.90;31.10
3842;DHT22;1936;47.074;15.336;2024-02-14T13:27:26;20.60;28.50